createdAt,value
2024-04-18T00:00:40.919Z,10.12
2024-04-18T00:01:43.152Z,10.12
2024-04-18T00:02:45.347Z,10.10
2024-04-18T00:04:09.116Z,10.09
2024-04-18T00:05:14.608Z,10.08
2024-04-18T00:06:16.793Z,10.08
2024-04-18T00:07:22.099Z,10.07
2024-04-18T00:08:44.277Z,10.08
2024-04-18T00:10:01.836Z,10.07
2024-04-18T00:11:14.389Z,10.06
2024-04-18T00:12:17.244Z,10.05
2024-04-18T00:13:22.976Z,10.05
2024-04-18T00:14:40.095Z,10.05
2024-04-18T00:15:56.789Z,10.05
2024-04-18T00:17:12.994Z,10.05
2024-04-18T00:18:15.403Z,10.04
2024-04-18T00:19:18.890Z,10.04
2024-04-18T00:20:35.879Z,10.05
2024-04-18T00:21:53.199Z,10.05
2024-04-18T00:23:03.517Z,10.04
2024-04-18T00:24:09.131Z,10.03
2024-04-18T00:25:26.431Z,10.04
2024-04-18T00:26:28.576Z,10.03
2024-04-18T00:27:39.456Z,10.03
2024-04-18T00:28:46.332Z,10.01
2024-04-18T00:29:54.326Z,10.00
2024-04-18T00:30:56.498Z,10.00
2024-04-18T00:32:36.111Z,9.99
2024-04-18T00:37:44.911Z,9.99
2024-04-18T00:39:45.372Z,9.98
2024-04-18T00:45:50.259Z,9.96
2024-04-18T00:51:57.598Z,9.97
2024-04-18T00:53:00.928Z,9.98
2024-04-18T00:54:06.555Z,9.97
2024-04-18T00:55:10.935Z,9.97
2024-04-18T00:56:16.044Z,9.97
2024-04-18T00:57:25.262Z,9.97
2024-04-18T00:58:30.267Z,9.97
2024-04-18T00:59:53.191Z,9.98
2024-04-18T01:00:58.755Z,9.98
2024-04-18T01:02:27.498Z,9.98
2024-04-18T01:03:50.786Z,9.98
2024-04-18T01:05:15.993Z,9.66
2024-04-18T01:06:18.216Z,9.64
2024-04-18T01:07:39.111Z,9.62
2024-04-18T01:09:02.923Z,9.63
2024-04-18T01:10:06.278Z,9.60
2024-04-18T01:11:08.353Z,9.61
2024-04-18T01:12:10.480Z,9.60
2024-04-18T01:13:15.407Z,9.60
2024-04-18T01:14:37.959Z,9.60
2024-04-18T01:15:40.099Z,9.59
2024-04-18T01:16:47.511Z,9.76
2024-04-18T01:17:49.775Z,9.91
2024-04-18T01:18:52.145Z,9.95
2024-04-18T01:19:59.045Z,9.96
2024-04-18T01:21:01.146Z,9.97
2024-04-18T01:22:05.560Z,9.97
2024-04-18T01:23:08.296Z,9.97
2024-04-18T01:24:22.605Z,9.98
2024-04-18T01:25:26.925Z,9.97
2024-04-18T01:26:31.657Z,9.96
2024-04-18T01:27:33.763Z,9.97
2024-04-18T01:28:38.452Z,9.96
2024-04-18T01:29:40.570Z,9.96
2024-04-18T01:30:44.993Z,9.96
2024-04-18T01:31:49.801Z,9.95
2024-04-18T01:32:51.922Z,9.96
2024-04-18T01:33:59.078Z,9.95
2024-04-18T01:35:04.038Z,9.95
2024-04-18T01:36:23.413Z,9.95
2024-04-18T01:37:28.721Z,9.94
2024-04-18T01:38:48.886Z,9.93
2024-04-18T01:40:08.525Z,9.91
2024-04-18T01:41:10.651Z,9.89
2024-04-18T01:42:36.052Z,9.89
2024-04-18T01:44:01.979Z,9.88
2024-04-18T01:45:23.232Z,9.90
2024-04-18T01:46:45.435Z,9.90
2024-04-18T01:48:10.399Z,9.89
2024-04-18T01:49:31.250Z,9.90
2024-04-18T01:50:33.354Z,9.89
2024-04-18T01:51:39.804Z,9.90
2024-04-18T01:53:02.035Z,9.92
2024-04-18T01:54:16.288Z,9.91
2024-04-18T01:55:33.322Z,9.90
2024-04-18T01:56:55.419Z,9.92
2024-04-18T01:58:00.136Z,9.91
2024-04-18T01:59:10.948Z,9.90
2024-04-18T02:00:15.349Z,9.91
2024-04-18T02:01:22.708Z,9.90
2024-04-18T02:02:27.957Z,9.90
2024-04-18T02:03:45.223Z,9.90
2024-04-18T02:04:49.942Z,9.90
2024-04-18T02:06:16.846Z,9.91
2024-04-18T02:07:24.956Z,9.91
2024-04-18T02:08:38.966Z,9.91
2024-04-18T02:09:55.724Z,9.91
2024-04-18T02:11:01.414Z,9.93
2024-04-18T02:12:18.991Z,9.92
2024-04-18T02:13:45.297Z,9.92
2024-04-18T02:14:47.510Z,9.92
2024-04-18T02:15:49.672Z,9.93
2024-04-18T02:16:54.688Z,9.92
2024-04-18T02:18:01.739Z,9.92
2024-04-18T02:19:16.982Z,9.91
2024-04-18T02:20:57.026Z,9.91
2024-04-18T02:21:59.190Z,9.91
2024-04-18T02:23:09.613Z,9.90
2024-04-18T02:24:26.503Z,9.91
2024-04-18T02:25:31.217Z,9.90
2024-04-18T02:27:29.519Z,9.88
2024-04-18T02:29:14.881Z,9.89
2024-04-18T02:30:57.301Z,9.88
2024-04-18T02:32:19.684Z,9.88
2024-04-18T02:33:22.027Z,9.86
2024-04-18T02:34:28.750Z,9.86
2024-04-18T02:35:31.077Z,9.87
2024-04-18T02:36:35.983Z,9.87
2024-04-18T02:37:48.009Z,9.88
2024-04-18T02:38:52.690Z,9.87
2024-04-18T02:39:56.909Z,9.90
2024-04-18T02:41:03.089Z,9.90
2024-04-18T02:42:23.663Z,9.88
2024-04-18T02:43:37.401Z,9.88
2024-04-18T02:44:42.145Z,9.88
2024-04-18T02:45:46.391Z,9.88
2024-04-18T02:47:06.815Z,9.88
2024-04-18T02:48:31.965Z,9.87
2024-04-18T02:49:54.201Z,9.86
2024-04-18T02:50:58.334Z,9.86
2024-04-18T02:52:00.505Z,9.86
2024-04-18T02:53:23.650Z,9.86
2024-04-18T02:54:43.916Z,9.87
2024-04-18T02:55:46.142Z,9.85
2024-04-18T02:57:08.185Z,9.86
2024-04-18T02:58:13.178Z,9.86
2024-04-18T02:59:17.327Z,9.86
2024-04-18T03:00:27.626Z,9.87
2024-04-18T03:02:05.027Z,9.85
2024-04-18T03:03:09.480Z,9.85
2024-04-18T03:04:32.933Z,9.85
2024-04-18T03:05:37.906Z,9.85
2024-04-18T03:06:40.175Z,9.86
2024-04-18T03:07:48.458Z,9.85
2024-04-18T03:08:52.735Z,9.85
2024-04-18T03:09:57.499Z,9.85
2024-04-18T03:11:02.839Z,9.84
2024-04-18T03:12:11.090Z,9.84
2024-04-18T03:13:18.674Z,9.83
2024-04-18T03:14:28.785Z,9.84
2024-04-18T03:15:51.629Z,9.82
2024-04-18T03:16:53.778Z,9.81
2024-04-18T03:18:00.107Z,9.82
2024-04-18T03:19:14.239Z,9.83
2024-04-18T03:20:31.850Z,9.82
2024-04-18T03:21:45.518Z,9.83
2024-04-18T03:22:53.352Z,9.82
2024-04-18T03:23:55.475Z,9.81
2024-04-18T03:25:18.769Z,9.79
2024-04-18T03:26:39.339Z,9.80
2024-04-18T03:27:41.735Z,9.81
2024-04-18T03:28:43.953Z,9.80
2024-04-18T03:29:48.883Z,9.79
2024-04-18T03:31:11.385Z,9.79
2024-04-18T03:32:16.365Z,9.79
2024-04-18T03:33:21.558Z,9.80
2024-04-18T03:34:26.332Z,9.78
2024-04-18T03:35:28.415Z,9.78
2024-04-18T03:36:53.143Z,9.78
2024-04-18T03:38:06.665Z,9.79
2024-04-18T03:39:10.475Z,9.79
2024-04-18T03:40:15.229Z,9.78
2024-04-18T03:41:37.193Z,9.78
2024-04-18T03:42:53.763Z,9.78
2024-04-18T03:43:59.950Z,9.78
2024-04-18T03:45:04.933Z,9.78
2024-04-18T03:46:07.037Z,9.78
2024-04-18T03:47:11.778Z,9.78
2024-04-18T03:48:16.848Z,9.78
2024-04-18T03:49:21.447Z,9.78
2024-04-18T03:50:26.443Z,9.77
2024-04-18T03:51:48.708Z,9.77
2024-04-18T03:53:09.149Z,9.78
2024-04-18T03:54:16.743Z,9.78
2024-04-18T03:55:30.305Z,9.76
2024-04-18T03:56:32.425Z,9.78
2024-04-18T03:57:34.655Z,9.76
2024-04-18T03:58:39.460Z,9.77
2024-04-18T03:59:41.547Z,9.77
2024-04-18T04:00:47.971Z,9.76
2024-04-18T04:01:50.118Z,9.75
2024-04-18T04:06:25.196Z,9.76
2024-04-18T04:08:07.552Z,9.76
2024-04-18T04:11:14.138Z,9.75
2024-04-18T04:12:16.349Z,9.76
2024-04-18T04:13:43.317Z,9.75
2024-04-18T04:14:54.647Z,9.74
2024-04-18T04:15:57.790Z,9.74
2024-04-18T04:17:14.943Z,9.73
2024-04-18T04:18:27.501Z,9.74
2024-04-18T04:19:51.982Z,9.73
2024-04-18T04:20:54.374Z,9.74
2024-04-18T04:21:59.999Z,9.74
2024-04-18T04:23:02.279Z,9.74
2024-04-18T04:24:04.918Z,9.73
2024-04-18T04:25:29.947Z,9.74
2024-04-18T04:26:34.595Z,9.74
2024-04-18T04:27:36.720Z,9.73
2024-04-18T04:28:38.917Z,9.74
2024-04-18T04:29:44.374Z,9.73
2024-04-18T04:30:48.745Z,9.73
2024-04-18T04:31:51.036Z,9.74
2024-04-18T04:32:55.957Z,9.73
2024-04-18T04:34:11.257Z,9.73
2024-04-18T04:35:13.671Z,9.73
2024-04-18T04:36:22.125Z,9.73
2024-04-18T04:37:25.412Z,9.73
2024-04-18T04:38:27.611Z,9.72
2024-04-18T04:39:29.886Z,9.73
2024-04-18T04:40:54.908Z,9.73
2024-04-18T04:42:00.429Z,9.72
2024-04-18T04:43:02.819Z,9.72
2024-04-18T04:44:07.616Z,9.73
2024-04-18T04:45:24.939Z,9.72
2024-04-18T04:46:42.184Z,9.72
2024-04-18T04:48:11.875Z,9.72
2024-04-18T04:49:35.552Z,9.70
2024-04-18T04:50:41.950Z,9.70
2024-04-18T04:51:52.322Z,9.69
2024-04-18T04:53:16.657Z,9.70
2024-04-18T04:54:34.566Z,9.70
2024-04-18T04:55:39.459Z,9.69
2024-04-18T04:56:41.602Z,9.69
2024-04-18T04:57:55.595Z,9.69
2024-04-18T04:59:02.344Z,9.68
2024-04-18T05:00:24.858Z,9.68
2024-04-18T05:01:32.780Z,9.68
2024-04-18T05:02:39.991Z,9.68
2024-04-18T05:03:54.589Z,9.68
2024-04-18T05:05:04.678Z,9.66
2024-04-18T05:06:09.922Z,9.67
2024-04-18T05:07:12.052Z,9.66
2024-04-18T05:08:14.161Z,9.66
2024-04-18T05:09:20.687Z,9.65
2024-04-18T05:10:25.004Z,9.65
2024-04-18T05:11:27.184Z,9.65
2024-04-18T05:12:31.963Z,9.64
2024-04-18T05:13:34.147Z,9.64
2024-04-18T05:14:56.615Z,9.64
2024-04-18T05:16:32.560Z,9.63
2024-04-18T05:17:46.894Z,9.63
2024-04-18T05:18:49.148Z,9.63
2024-04-18T05:19:53.958Z,9.62
2024-04-18T05:21:13.934Z,9.63
2024-04-18T05:22:36.853Z,9.61
2024-04-18T05:23:41.603Z,9.61
2024-04-18T05:24:43.711Z,9.60
2024-04-18T05:25:45.851Z,9.61
2024-04-18T05:26:54.171Z,9.62
2024-04-18T05:28:11.750Z,9.61
2024-04-18T05:29:32.571Z,9.60
2024-04-18T05:30:53.470Z,9.60
2024-04-18T05:31:55.830Z,9.60
2024-04-18T05:33:00.175Z,9.60
2024-04-18T05:34:05.132Z,9.61
2024-04-18T05:35:07.530Z,9.61
2024-04-18T05:36:09.804Z,9.59
2024-04-18T05:37:17.193Z,9.60
2024-04-18T05:38:21.451Z,9.59
2024-04-18T05:39:26.199Z,9.59
2024-04-18T05:42:29.557Z,9.59
2024-04-18T05:50:56.583Z,9.55
2024-04-18T05:51:58.817Z,9.55
2024-04-18T05:53:11.961Z,9.55
2024-04-18T05:54:33.198Z,9.53
2024-04-18T05:55:43.870Z,9.52
2024-04-18T05:56:46.218Z,9.50
2024-04-18T05:57:51.128Z,9.50
2024-04-18T05:59:33.212Z,9.50
2024-04-18T06:00:37.707Z,9.49
2024-04-18T06:01:42.607Z,9.48
2024-04-18T06:02:44.753Z,9.48
2024-04-18T06:03:49.596Z,9.47
2024-04-18T06:04:51.910Z,9.44
2024-04-18T06:06:17.782Z,9.44
2024-04-18T06:07:22.827Z,9.43
2024-04-18T06:08:28.655Z,9.43
2024-04-18T06:09:33.366Z,9.42
2024-04-18T06:10:38.475Z,9.43
2024-04-18T06:12:00.381Z,9.44
2024-04-18T06:13:02.573Z,9.43
2024-04-18T06:14:05.993Z,9.42
2024-04-18T06:15:11.003Z,9.43
2024-04-18T06:16:13.393Z,9.42
2024-04-18T06:17:29.194Z,9.41
2024-04-18T06:18:31.501Z,9.40
2024-04-18T06:19:36.287Z,9.40
2024-04-18T06:21:01.635Z,9.39
2024-04-18T06:22:06.495Z,9.38
2024-04-18T06:23:10.994Z,9.37
2024-04-18T06:24:18.482Z,9.42
2024-04-18T06:25:20.557Z,9.45
2024-04-18T06:26:25.408Z,9.45
2024-04-18T06:27:27.700Z,9.45
2024-04-18T06:28:32.058Z,9.44
2024-04-18T06:29:36.889Z,9.43
2024-04-18T06:30:42.241Z,9.42
2024-04-18T06:31:49.815Z,9.41
2024-04-18T06:32:51.978Z,9.41
2024-04-18T06:33:56.338Z,9.39
2024-04-18T06:35:01.173Z,9.38
2024-04-18T06:36:04.002Z,9.38
2024-04-18T06:37:10.636Z,9.39
2024-04-18T06:38:12.916Z,9.38
2024-04-18T06:39:22.565Z,9.38
2024-04-18T06:40:25.974Z,9.38
2024-04-18T06:41:30.781Z,9.39
2024-04-18T06:42:33.450Z,9.38
2024-04-18T06:43:38.222Z,9.37
2024-04-18T06:44:42.388Z,9.37
2024-04-18T06:45:47.687Z,9.37
2024-04-18T06:46:57.065Z,9.35
2024-04-18T06:48:07.669Z,9.34
2024-04-18T06:49:10.015Z,9.33
2024-04-18T06:50:16.956Z,9.32
2024-04-18T06:51:19.123Z,9.32
2024-04-18T06:52:23.892Z,9.31
2024-04-18T06:53:26.031Z,9.31
2024-04-18T06:54:33.466Z,9.31
2024-04-18T06:55:37.710Z,9.32
2024-04-18T06:56:42.425Z,9.33
2024-04-18T06:57:44.804Z,9.34
2024-04-18T06:59:05.949Z,9.36
2024-04-18T07:00:20.216Z,9.37
2024-04-18T07:01:24.623Z,9.39
2024-04-18T07:02:35.660Z,9.41
2024-04-18T07:03:57.097Z,9.40
2024-04-18T07:05:14.167Z,9.41
2024-04-18T07:06:23.155Z,9.42
2024-04-18T07:07:42.126Z,9.43
2024-04-18T07:09:04.662Z,9.44
2024-04-18T07:10:24.389Z,9.45
2024-04-18T07:11:30.841Z,9.48
2024-04-18T07:12:35.822Z,9.49
2024-04-18T07:13:55.434Z,9.50
2024-04-18T07:15:10.386Z,9.51
2024-04-18T07:16:18.736Z,9.52
2024-04-18T07:17:32.701Z,9.53
2024-04-18T07:18:41.012Z,9.53
2024-04-18T07:19:47.916Z,9.54
2024-04-18T07:21:09.243Z,9.55
2024-04-18T07:22:11.410Z,9.56
2024-04-18T07:23:31.071Z,9.58
2024-04-18T07:24:43.675Z,9.58
2024-04-18T07:25:50.570Z,9.60
2024-04-18T07:27:07.395Z,9.62
2024-04-18T07:28:28.505Z,9.66
2024-04-18T07:29:36.395Z,9.68
2024-04-18T07:30:38.579Z,9.70
2024-04-18T07:31:45.499Z,9.73
2024-04-18T07:32:47.835Z,9.80
2024-04-18T07:33:52.743Z,9.84
2024-04-18T07:34:54.976Z,9.86
2024-04-18T07:36:22.889Z,9.90
2024-04-18T07:37:30.544Z,9.91
2024-04-18T07:38:37.199Z,9.90
2024-04-18T07:39:40.441Z,9.91
2024-04-18T07:40:42.586Z,9.89
2024-04-18T07:41:50.316Z,9.86
2024-04-18T07:42:55.264Z,9.68
2024-04-18T07:44:00.068Z,9.65
2024-04-18T07:45:02.299Z,9.64
2024-04-18T07:46:05.399Z,9.59
2024-04-18T07:47:10.678Z,9.59
2024-04-18T07:48:14.991Z,9.54
2024-04-18T07:49:19.998Z,9.54
2024-04-18T07:50:22.356Z,9.53
2024-04-18T07:51:24.605Z,9.54
2024-04-18T07:52:29.718Z,9.53
2024-04-18T07:53:34.215Z,9.53
2024-04-18T07:54:39.615Z,9.53
2024-04-18T07:55:42.561Z,9.53
2024-04-18T07:56:50.288Z,9.54
2024-04-18T07:57:53.677Z,9.53
2024-04-18T07:58:58.820Z,9.53
2024-04-18T08:00:06.092Z,9.54
2024-04-18T08:01:14.992Z,9.54
2024-04-18T08:02:22.502Z,9.54
2024-04-18T08:03:27.799Z,9.54
2024-04-18T08:04:52.710Z,9.55
2024-04-18T08:06:01.670Z,9.57
2024-04-18T08:07:11.486Z,9.57
2024-04-18T08:08:17.815Z,9.58
2024-04-18T08:09:24.118Z,9.58
2024-04-18T08:10:41.254Z,9.58
2024-04-18T08:12:22.893Z,9.60
2024-04-18T08:13:25.245Z,9.59
2024-04-18T08:14:35.487Z,9.60
2024-04-18T08:16:50.505Z,9.61
2024-04-18T08:17:52.974Z,9.62
2024-04-18T08:18:57.742Z,9.63
2024-04-18T08:19:59.851Z,9.62
2024-04-18T08:21:07.171Z,9.63
2024-04-18T08:22:09.329Z,9.62
2024-04-18T08:23:20.656Z,9.63
2024-04-18T08:24:28.954Z,9.64
2024-04-18T08:25:51.943Z,9.66
2024-04-18T08:26:59.070Z,9.66
2024-04-18T08:28:05.079Z,9.66
2024-04-18T08:29:07.267Z,9.67
2024-04-18T08:30:14.385Z,9.66
2024-04-18T08:31:16.593Z,9.68
2024-04-18T08:32:23.512Z,9.69
2024-04-18T08:33:25.637Z,9.69
2024-04-18T08:34:32.380Z,9.69
2024-04-18T08:35:35.022Z,9.68
2024-04-18T08:36:39.788Z,9.69
2024-04-18T08:37:43.959Z,9.68
2024-04-18T08:38:48.646Z,9.69
2024-04-18T08:39:50.716Z,9.68
2024-04-18T08:40:56.175Z,9.67
2024-04-18T08:42:02.055Z,9.66
2024-04-18T08:43:09.002Z,9.66
2024-04-18T08:44:12.114Z,9.67
2024-04-18T08:45:14.647Z,9.66
2024-04-18T08:46:20.302Z,9.68
2024-04-18T08:47:24.616Z,9.67
2024-04-18T08:48:35.148Z,9.67
2024-04-18T08:49:40.340Z,9.69
2024-04-18T08:50:45.607Z,9.69
2024-04-18T08:51:49.277Z,9.70
2024-04-18T08:52:55.745Z,9.71
2024-04-18T08:54:00.064Z,9.72
2024-04-18T08:55:02.439Z,9.73
2024-04-18T08:56:11.646Z,9.73
2024-04-18T08:57:20.244Z,9.75
2024-04-18T08:58:25.551Z,9.76
2024-04-18T08:59:29.930Z,9.77
2024-04-18T09:01:09.555Z,9.77
2024-04-18T09:05:10.080Z,9.75
2024-04-18T09:07:08.013Z,9.75
2024-04-18T09:09:19.774Z,9.73
2024-04-18T09:10:24.882Z,9.71
2024-04-18T09:11:31.368Z,9.71
2024-04-18T09:12:36.812Z,9.71
2024-04-18T09:13:39.533Z,9.72
2024-04-18T09:14:44.364Z,9.74
2024-04-18T09:15:48.909Z,9.75
2024-04-18T09:16:53.637Z,9.76
2024-04-18T09:18:02.326Z,9.78
2024-04-18T09:19:08.692Z,9.81
2024-04-18T09:20:11.539Z,9.84
2024-04-18T09:21:18.397Z,9.85
2024-04-18T09:22:21.136Z,9.88
2024-04-18T09:23:26.005Z,9.87
2024-04-18T09:24:28.372Z,9.90
2024-04-18T09:25:34.718Z,9.91
2024-04-18T09:26:43.315Z,9.91
2024-04-18T09:27:49.026Z,9.93
2024-04-18T09:28:53.931Z,9.91
2024-04-18T09:29:56.159Z,9.89
2024-04-18T09:31:00.418Z,9.88
2024-04-18T09:32:12.480Z,9.89
2024-04-18T09:33:14.957Z,9.86
2024-04-18T09:34:17.972Z,9.86
2024-04-18T09:35:25.368Z,9.85
2024-04-18T09:36:28.325Z,9.86
2024-04-18T09:37:36.826Z,9.85
2024-04-18T09:38:45.214Z,9.85
2024-04-18T09:39:56.151Z,9.87
2024-04-18T09:41:02.905Z,9.87
2024-04-18T09:42:12.716Z,9.88
2024-04-18T09:43:26.572Z,9.88
2024-04-18T09:44:32.160Z,9.90
2024-04-18T09:45:44.200Z,9.92
2024-04-18T09:46:47.675Z,9.92
2024-04-18T09:47:53.260Z,9.93
2024-04-18T09:48:58.309Z,9.94
2024-04-18T09:50:03.567Z,9.95
2024-04-18T09:51:07.219Z,9.96
2024-04-18T09:52:13.159Z,9.98
2024-04-18T09:53:16.045Z,10.00
2024-04-18T09:54:23.380Z,10.04
2024-04-18T09:55:27.722Z,10.09
2024-04-18T09:56:34.883Z,10.09
2024-04-18T09:57:38.210Z,10.13
2024-04-18T09:58:43.870Z,10.15
2024-04-18T09:59:52.458Z,10.18
2024-04-18T10:00:54.853Z,10.21
2024-04-18T10:02:00.835Z,10.25
2024-04-18T10:03:08.306Z,10.27
2024-04-18T10:04:13.606Z,10.24
2024-04-18T10:05:18.617Z,10.26
2024-04-18T10:06:29.616Z,10.19
2024-04-18T10:07:33.104Z,10.17
2024-04-18T10:08:44.251Z,10.11
2024-04-18T10:09:49.443Z,10.08
2024-04-18T10:10:57.192Z,10.07
2024-04-18T10:11:59.388Z,10.07
2024-04-18T10:13:04.250Z,10.05
2024-04-18T10:14:10.896Z,10.02
2024-04-18T10:15:18.595Z,10.01
2024-04-18T10:16:25.769Z,9.88
2024-04-18T10:17:31.863Z,9.86
2024-04-18T10:18:36.942Z,9.86
2024-04-18T10:19:49.633Z,9.86
2024-04-18T10:20:54.653Z,9.83
2024-04-18T10:22:11.560Z,9.85
2024-04-18T10:23:25.426Z,9.84
2024-04-18T10:24:33.511Z,9.84
2024-04-18T10:25:39.863Z,9.84
2024-04-18T10:26:44.613Z,9.86
2024-04-18T10:27:48.944Z,9.87
2024-04-18T10:28:54.058Z,9.88
2024-04-18T10:30:00.359Z,9.91
2024-04-18T10:31:05.102Z,9.93
2024-04-18T10:32:11.853Z,9.94
2024-04-18T10:35:51.340Z,9.95
2024-04-18T10:47:28.429Z,9.97
2024-04-18T10:48:58.904Z,9.98
2024-04-18T10:50:01.780Z,9.99
2024-04-18T10:51:04.636Z,9.99
2024-04-18T10:52:12.324Z,10.00
2024-04-18T10:53:14.879Z,10.02
2024-04-18T10:54:20.899Z,10.02
2024-04-18T10:55:23.780Z,10.03
2024-04-18T10:56:30.215Z,10.04
2024-04-18T10:57:34.654Z,10.06
2024-04-18T10:58:40.360Z,10.06
2024-04-18T10:59:44.948Z,10.08
2024-04-18T11:00:48.320Z,10.11
2024-04-18T11:01:53.157Z,10.13
2024-04-18T11:03:00.060Z,10.14
2024-04-18T11:04:04.936Z,10.14
2024-04-18T11:05:09.509Z,10.11
2024-04-18T11:06:25.941Z,10.13
2024-04-18T11:07:48.721Z,10.11
2024-04-18T11:08:55.568Z,10.12
2024-04-18T11:09:57.906Z,10.09
2024-04-18T11:11:00.745Z,10.08
2024-04-18T11:12:06.266Z,10.09
2024-04-18T11:13:10.911Z,10.08
2024-04-18T11:14:18.478Z,10.08
2024-04-18T11:15:21.037Z,10.09
2024-04-18T11:16:26.617Z,10.09
2024-04-18T11:17:30.924Z,10.11
2024-04-18T11:18:38.595Z,10.11
2024-04-18T11:19:43.093Z,10.12
2024-04-18T11:20:48.115Z,10.13
2024-04-18T11:21:50.308Z,10.14
2024-04-18T11:23:01.310Z,10.16
2024-04-18T11:24:13.594Z,10.16
2024-04-18T11:25:17.854Z,10.18
2024-04-18T11:26:40.493Z,10.16
2024-04-18T11:27:42.861Z,10.19
2024-04-18T11:28:49.251Z,10.21
2024-04-18T11:29:53.018Z,10.21
2024-04-18T11:30:57.629Z,10.19
2024-04-18T11:32:08.736Z,10.24
2024-04-18T11:33:12.302Z,10.28
2024-04-18T11:34:19.864Z,10.32
2024-04-18T11:35:22.613Z,10.35
2024-04-18T11:36:27.372Z,10.33
2024-04-18T11:37:40.192Z,10.33
2024-04-18T11:38:42.574Z,10.33
2024-04-18T11:39:45.364Z,10.34
2024-04-18T11:40:50.195Z,10.31
2024-04-18T11:41:54.459Z,10.32
2024-04-18T11:42:59.157Z,10.33
2024-04-18T11:44:02.818Z,10.34
2024-04-18T11:45:08.484Z,10.33
2024-04-18T11:46:11.098Z,10.35
2024-04-18T11:47:18.025Z,10.36
2024-04-18T11:48:20.375Z,10.38
2024-04-18T11:49:27.859Z,10.39
2024-04-18T11:50:30.298Z,10.40
2024-04-18T11:51:32.499Z,10.43
2024-04-18T11:52:39.303Z,10.44
2024-04-18T11:53:41.400Z,10.47
2024-04-18T11:55:03.862Z,10.44
2024-04-18T11:56:14.803Z,10.43
2024-04-18T11:57:17.285Z,10.45
2024-04-18T11:58:24.139Z,10.46
2024-04-18T11:59:28.346Z,10.48
2024-04-18T12:00:30.673Z,10.48
2024-04-18T12:01:47.308Z,10.45
2024-04-18T12:02:56.726Z,10.47
2024-04-18T12:04:03.961Z,10.48
2024-04-18T12:05:09.870Z,10.50
2024-04-18T12:06:25.908Z,10.53
2024-04-18T12:07:28.057Z,10.51
2024-04-18T12:08:30.544Z,10.52
2024-04-18T12:09:38.253Z,10.47
2024-04-18T12:10:40.570Z,10.53
2024-04-18T12:11:45.294Z,10.56
2024-04-18T12:12:47.778Z,10.52
2024-04-18T12:14:01.527Z,10.43
2024-04-18T12:15:06.589Z,10.33
2024-04-18T12:16:11.473Z,10.20
2024-04-18T12:17:13.680Z,10.23
2024-04-18T12:18:21.168Z,10.17
2024-04-18T12:19:23.498Z,10.10
2024-04-18T12:20:33.062Z,10.14
2024-04-18T12:21:35.567Z,10.07
2024-04-18T12:22:37.824Z,10.01
2024-04-18T12:26:47.728Z,10.05
2024-04-18T12:28:36.313Z,9.99
2024-04-18T12:29:41.196Z,9.90
2024-04-18T12:30:43.414Z,9.91
2024-04-18T12:32:01.160Z,9.82
2024-04-18T12:33:05.148Z,9.81
2024-04-18T12:34:07.662Z,9.83
2024-04-18T12:35:12.519Z,9.81
2024-04-18T12:36:18.572Z,9.81
2024-04-18T12:37:25.675Z,9.84
2024-04-18T12:38:27.835Z,9.87
2024-04-18T12:39:35.700Z,9.93
2024-04-18T12:40:59.667Z,9.95
2024-04-18T12:42:05.264Z,9.95
2024-04-18T12:43:13.502Z,9.98
2024-04-18T12:44:31.898Z,9.95
2024-04-18T12:45:35.914Z,9.95
2024-04-18T12:46:41.378Z,9.95
2024-04-18T12:47:44.846Z,9.96
2024-04-18T12:48:59.327Z,9.97
2024-04-18T12:50:01.932Z,9.99
2024-04-18T12:51:06.456Z,10.00
2024-04-18T12:52:24.000Z,10.03
2024-04-18T12:53:26.829Z,10.04
2024-04-18T12:54:36.384Z,10.03
2024-04-18T12:55:38.629Z,10.04
2024-04-18T12:56:41.109Z,10.04
2024-04-18T12:58:02.565Z,10.05
2024-04-18T12:59:10.651Z,10.05
2024-04-18T13:00:26.140Z,10.07
2024-04-18T13:01:34.233Z,10.07
2024-04-18T13:02:56.792Z,10.06
2024-04-18T13:04:11.165Z,10.05
2024-04-18T13:05:27.035Z,10.07
2024-04-18T13:06:39.228Z,10.07
2024-04-18T13:08:25.282Z,10.08
2024-04-18T13:09:34.564Z,10.08
2024-04-18T13:10:41.610Z,10.08
2024-04-18T13:11:58.376Z,10.09
2024-04-18T13:13:03.174Z,10.10
2024-04-18T13:14:09.380Z,10.10
2024-04-18T13:15:14.241Z,10.12
2024-04-18T13:16:18.690Z,10.11
2024-04-18T13:17:44.632Z,10.13
2024-04-18T13:18:56.849Z,10.15
2024-04-18T13:20:19.800Z,10.16
2024-04-18T13:21:24.135Z,10.19
2024-04-18T13:22:28.907Z,10.20
2024-04-18T13:23:34.102Z,10.20
2024-04-18T13:24:38.902Z,10.22
2024-04-18T13:26:18.429Z,10.22
2024-04-18T13:27:23.255Z,10.23
2024-04-18T13:28:31.168Z,10.25
2024-04-18T13:29:49.134Z,10.24
2024-04-18T13:31:20.132Z,10.26
2024-04-18T13:32:24.677Z,10.26
2024-04-18T13:33:29.596Z,10.26
2024-04-18T13:34:31.851Z,10.31
2024-04-18T13:35:36.658Z,10.29
2024-04-18T13:36:40.949Z,10.28
2024-04-18T13:37:48.757Z,10.29
2024-04-18T13:38:53.893Z,10.29
2024-04-18T13:40:10.822Z,10.31
2024-04-18T13:41:39.475Z,10.32
2024-04-18T13:42:55.867Z,10.32
2024-04-18T13:44:04.078Z,10.33
2024-04-18T13:45:16.527Z,10.33
2024-04-18T13:46:33.567Z,10.33
2024-04-18T13:47:36.140Z,10.34
2024-04-18T13:48:43.338Z,10.36
2024-04-18T13:49:46.089Z,10.36
2024-04-18T13:50:53.436Z,10.38
2024-04-18T13:51:55.826Z,10.43
2024-04-18T13:53:07.511Z,10.40
2024-04-18T13:54:16.548Z,10.41
2024-04-18T13:55:19.515Z,10.48
2024-04-18T13:57:02.218Z,10.43
2024-04-18T13:58:48.261Z,10.45
2024-04-18T14:02:40.001Z,10.48
2024-04-18T14:04:23.173Z,10.48
2024-04-18T14:08:14.154Z,10.50
2024-04-18T14:09:42.659Z,10.50
2024-04-18T14:10:47.560Z,10.49
2024-04-18T14:12:08.177Z,10.50
2024-04-18T14:13:15.951Z,10.51
2024-04-18T14:14:29.560Z,10.50
2024-04-18T14:16:17.396Z,10.53
2024-04-18T14:17:47.809Z,10.54
2024-04-18T14:18:53.232Z,10.56
2024-04-18T14:20:14.407Z,10.59
2024-04-18T14:21:26.759Z,10.60
2024-04-18T14:22:32.337Z,10.61
2024-04-18T14:23:34.840Z,10.62
2024-04-18T14:24:42.836Z,10.63
2024-04-18T14:25:54.338Z,10.63
2024-04-18T14:27:00.537Z,10.65
2024-04-18T14:28:09.795Z,10.64
2024-04-18T14:29:18.852Z,10.65
2024-04-18T14:30:36.242Z,10.65
2024-04-18T14:32:09.098Z,10.67
2024-04-18T14:33:30.492Z,10.65
2024-04-18T14:35:08.600Z,10.63
2024-04-18T14:36:13.047Z,10.63
2024-04-18T14:37:19.281Z,10.63
2024-04-18T14:38:24.084Z,10.63
2024-04-18T14:39:29.395Z,10.63
2024-04-18T14:40:46.923Z,10.62
2024-04-18T14:41:59.794Z,10.63
2024-04-18T14:43:01.998Z,10.62
2024-04-18T14:44:09.721Z,10.58
2024-04-18T14:45:13.741Z,10.60
2024-04-18T14:46:21.439Z,10.61
2024-04-18T14:47:26.540Z,10.62
2024-04-18T14:48:34.855Z,10.65
2024-04-18T14:49:41.000Z,10.68
2024-04-18T14:51:03.586Z,10.69
2024-04-18T14:52:24.161Z,10.70
2024-04-18T14:53:28.705Z,10.69
2024-04-18T14:54:46.608Z,10.73
2024-04-18T14:56:07.653Z,10.73
2024-04-18T14:57:13.248Z,10.73
2024-04-18T14:58:15.944Z,10.74
2024-04-18T14:59:32.190Z,10.73
2024-04-18T15:00:35.346Z,10.74
2024-04-18T15:01:43.227Z,10.70
2024-04-18T15:02:45.929Z,10.70
2024-04-18T15:04:09.633Z,10.70
2024-04-18T15:05:34.504Z,10.69
2024-04-18T15:07:03.133Z,10.69
2024-04-18T15:08:13.750Z,10.69
2024-04-18T15:09:25.640Z,10.70
2024-04-18T15:11:54.177Z,10.70
2024-04-18T15:12:56.677Z,10.70
2024-04-18T15:14:01.620Z,10.66
2024-04-18T15:15:09.093Z,10.68
2024-04-18T15:16:15.825Z,10.69
2024-04-18T15:17:23.647Z,10.73
2024-04-18T15:18:29.084Z,10.72
2024-04-18T15:19:52.500Z,10.75
2024-04-18T15:21:17.698Z,10.76
2024-04-18T15:23:05.066Z,10.77
2024-04-18T15:24:10.218Z,10.77
2024-04-18T15:25:32.483Z,10.78
2024-04-18T15:26:37.244Z,10.78
2024-04-18T15:27:41.722Z,10.79
2024-04-18T15:28:48.777Z,10.80
2024-04-18T15:30:13.632Z,10.82
2024-04-18T15:31:19.398Z,10.81
2024-04-18T15:32:31.657Z,10.81
2024-04-18T15:34:10.002Z,10.83
2024-04-18T15:35:33.337Z,10.83
2024-04-18T15:36:53.442Z,11.00
2024-04-18T15:38:02.516Z,11.04
2024-04-18T15:39:12.527Z,11.06
2024-04-18T15:40:20.520Z,11.07
2024-04-18T15:41:59.550Z,11.03
2024-04-18T15:48:36.295Z,10.90
2024-04-18T15:49:43.116Z,10.82
2024-04-18T15:50:45.301Z,10.86
2024-04-18T15:52:06.777Z,10.84
2024-04-18T15:53:22.204Z,10.78
2024-04-18T15:54:45.698Z,10.78
2024-04-18T15:55:47.917Z,10.79
2024-04-18T15:57:05.202Z,10.77
2024-04-18T15:58:07.452Z,10.78
2024-04-18T15:59:18.138Z,10.79
2024-04-18T16:00:25.365Z,10.80
2024-04-18T16:01:27.756Z,10.78
2024-04-18T16:03:11.045Z,10.79
2024-04-18T16:04:31.144Z,10.81
2024-04-18T16:05:41.004Z,10.79
2024-04-18T16:06:43.245Z,10.77
2024-04-18T16:07:48.485Z,10.79
2024-04-18T16:09:05.296Z,10.79
2024-04-18T16:10:16.653Z,10.74
2024-04-18T16:11:32.600Z,10.76
2024-04-18T16:12:34.821Z,10.74
2024-04-18T16:13:39.599Z,10.76
2024-04-18T16:14:52.822Z,10.74
2024-04-18T16:16:04.145Z,10.75
2024-04-18T16:17:14.450Z,10.76
2024-04-18T16:18:39.761Z,10.77
2024-04-18T16:19:44.618Z,10.78